createdAt,value
2022-11-14T00:04:07.399Z,99.90
2022-11-14T00:21:03.364Z,99.90
2022-11-14T00:38:00.232Z,99.90
2022-11-14T00:49:15.256Z,99.90
2022-11-14T00:52:03.604Z,99.90
2022-11-14T00:54:54.494Z,99.90
2022-11-14T01:06:13.898Z,99.90
2022-11-14T01:09:02.658Z,99.90
2022-11-14T01:25:57.414Z,99.90
2022-11-14T01:28:48.694Z,99.90
2022-11-14T01:43:22.153Z,99.90
2022-11-14T01:49:09.380Z,99.90
2022-11-14T01:52:04.614Z,99.90
2022-11-14T01:57:46.951Z,99.90
2022-11-14T02:11:57.914Z,99.90
2022-11-14T02:17:36.772Z,99.90
2022-11-14T02:23:28.628Z,99.90
2022-11-14T02:31:58.672Z,99.90
2022-11-14T02:37:38.881Z,99.90
2022-11-14T02:57:23.465Z,99.90
2022-11-14T03:05:53.548Z,99.90
2022-11-14T03:19:59.095Z,99.90
2022-11-14T03:28:28.513Z,99.90
2022-11-14T03:48:17.491Z,99.90
2022-11-14T03:53:54.945Z,99.90
2022-11-14T04:02:23.831Z,99.90
2022-11-14T04:13:39.666Z,99.90
2022-11-14T04:27:46.267Z,99.90
2022-11-14T04:36:15.327Z,99.90
2022-11-14T04:53:10.789Z,99.90
2022-11-14T05:12:56.956Z,99.90
2022-11-14T05:15:45.505Z,99.90
2022-11-14T05:21:22.578Z,99.90
2022-11-14T05:27:02.547Z,99.90
2022-11-14T05:41:08.767Z,99.90
2022-11-14T05:46:48.840Z,99.90
2022-11-14T09:11:05.102Z,99.90
2022-11-14T10:02:28.170Z,99.90
2022-11-14T10:05:52.315Z,99.90
2022-11-14T10:08:54.345Z,99.90
2022-11-14T10:11:47.400Z,99.90
2022-11-14T10:14:53.480Z,99.90
2022-11-14T10:18:10.429Z,99.90
2022-11-14T10:21:03.810Z,99.90
2022-11-14T10:26:55.852Z,99.90
2022-11-14T10:33:09.224Z,99.90
2022-11-14T10:41:57.163Z,99.00
2022-11-14T10:53:31.888Z,97.20
2022-11-14T10:56:20.638Z,99.90
2022-11-14T10:59:11.504Z,99.90
2022-11-14T11:02:01.321Z,96.20
2022-11-14T11:04:52.549Z,95.80
2022-11-14T11:08:15.080Z,95.10
2022-11-14T11:14:20.852Z,94.70
2022-11-14T11:37:43.747Z,92.60
2022-11-14T11:43:41.049Z,92.30
2022-11-14T11:49:38.593Z,92.40
2022-11-14T11:55:27.122Z,90.60
2022-11-14T11:58:23.559Z,91.00
2022-11-14T12:01:14.581Z,92.20
2022-11-14T12:04:04.469Z,89.90
2022-11-14T12:07:05.175Z,98.50
2022-11-14T12:10:11.463Z,97.50
2022-11-14T12:16:19.821Z,88.20
2022-11-14T12:31:16.920Z,85.80
2022-11-14T12:36:56.238Z,99.90
2022-11-14T12:39:45.236Z,99.90
2022-11-14T12:46:01.335Z,87.30
2022-11-14T12:48:52.501Z,86.10
2022-11-14T12:51:58.431Z,87.20
2022-11-14T13:01:01.149Z,88.80
2022-11-14T13:06:57.022Z,90.20
2022-11-14T13:10:03.935Z,89.60
2022-11-14T13:19:31.546Z,90.80
2022-11-14T13:34:35.954Z,91.90
2022-11-14T13:37:44.845Z,92.50
2022-11-14T13:43:36.591Z,92.70
2022-11-14T13:46:39.169Z,93.10
2022-11-14T13:49:50.390Z,93.80
2022-11-14T13:58:56.938Z,94.10
2022-11-14T14:10:44.734Z,94.80
2022-11-14T14:13:55.091Z,95.40
2022-11-14T14:25:32.660Z,96.80
2022-11-14T14:31:19.946Z,97.00
2022-11-14T14:37:20.730Z,97.50
2022-11-14T14:40:26.602Z,97.90
2022-11-14T14:48:55.822Z,98.60
2022-11-14T14:54:33.184Z,99.90
2022-11-14T15:00:26.080Z,99.90
2022-11-14T15:06:05.475Z,99.90
2022-11-14T15:11:45.232Z,99.90
2022-11-14T15:14:39.987Z,99.90
2022-11-14T15:20:25.758Z,99.90
2022-11-14T15:26:17.145Z,99.90
2022-11-14T15:29:09.678Z,99.90
2022-11-14T15:32:02.851Z,99.90
2022-11-14T15:38:28.729Z,99.90
2022-11-14T15:41:19.471Z,99.90
2022-11-14T15:50:00.064Z,99.90
2022-11-14T15:58:29.427Z,99.90
2022-11-14T16:01:26.301Z,99.90
2022-11-14T16:49:07.982Z,99.90
2022-11-14T17:31:38.354Z,99.90
2022-11-14T17:37:17.258Z,99.90
2022-11-14T17:45:57.880Z,99.90
2022-11-14T17:51:35.331Z,99.90
2022-11-14T18:36:59.360Z,99.90
2022-11-14T18:39:47.635Z,99.90
2022-11-14T18:45:25.415Z,99.90
2022-11-14T18:48:16.556Z,99.90
2022-11-14T18:51:06.304Z,99.90
2022-11-14T18:56:44.193Z,99.90
2022-11-14T19:05:13.309Z,99.90
2022-11-14T19:08:01.749Z,99.90
2022-11-14T19:10:50.316Z,99.90
2022-11-14T19:19:16.606Z,99.90
2022-11-14T19:22:07.901Z,99.90
2022-11-14T19:24:57.934Z,99.90
2022-11-14T19:36:18.776Z,99.90
2022-11-14T19:39:19.156Z,99.90
2022-11-14T19:50:33.777Z,99.90
2022-11-14T19:56:16.212Z,99.90
2022-11-14T20:04:50.968Z,99.90
2022-11-14T20:07:39.560Z,99.90
2022-11-14T20:10:28.023Z,99.90
2022-11-14T20:13:19.174Z,99.90
2022-11-14T20:16:12.141Z,99.90
2022-11-14T20:19:02.161Z,99.90
2022-11-14T20:21:52.163Z,99.90
2022-11-14T20:24:40.809Z,99.90
2022-11-14T20:30:21.692Z,99.90
2022-11-14T20:33:10.713Z,99.90
2022-11-14T20:35:59.212Z,99.90
2022-11-14T20:38:48.086Z,99.90
2022-11-14T20:41:36.794Z,99.90
2022-11-14T20:47:17.459Z,99.90
2022-11-14T20:52:55.336Z,99.90
2022-11-14T20:58:33.316Z,99.90
2022-11-14T21:01:22.300Z,99.90
2022-11-14T21:04:13.616Z,99.90
2022-11-14T21:07:02.358Z,99.90
2022-11-14T21:13:12.372Z,99.90
2022-11-14T21:16:01.276Z,99.90
2022-11-14T21:18:50.643Z,99.90
2022-11-14T21:21:41.794Z,99.90
2022-11-14T21:24:30.505Z,99.90
2022-11-14T21:27:19.654Z,99.90
2022-11-14T21:30:09.887Z,99.90
2022-11-14T21:32:58.795Z,99.90
2022-11-14T21:35:47.428Z,99.90
2022-11-14T21:38:38.829Z,99.90
2022-11-14T21:41:28.854Z,99.90
2022-11-14T21:44:19.297Z,99.90
2022-11-14T21:55:41.259Z,99.90
2022-11-14T21:58:33.598Z,99.90
2022-11-14T22:01:44.167Z,99.90
2022-11-14T22:04:31.625Z,99.90
2022-11-14T22:07:20.598Z,99.90
2022-11-14T22:10:10.007Z,99.90
2022-11-14T22:13:01.133Z,99.90
2022-11-14T22:29:57.019Z,99.90
2022-11-14T22:35:38.079Z,99.90
2022-11-14T22:38:26.673Z,99.90
2022-11-14T22:41:17.101Z,99.90
2022-11-14T22:44:05.557Z,99.90
2022-11-14T22:46:56.482Z,99.90
2022-11-14T22:49:45.182Z,99.90
2022-11-14T22:55:22.672Z,99.90
2022-11-14T22:58:11.422Z,99.90
2022-11-14T23:00:59.985Z,99.90
2022-11-14T23:03:51.530Z,99.90
2022-11-14T23:06:40.222Z,99.90
2022-11-14T23:12:18.601Z,99.90
2022-11-14T23:15:08.297Z,99.90
2022-11-14T23:20:48.830Z,99.90
2022-11-14T23:26:27.110Z,99.90
2022-11-14T23:29:16.771Z,99.90
2022-11-14T23:32:05.358Z,99.90
2022-11-14T23:34:53.928Z,99.90
2022-11-14T23:37:45.056Z,99.90
2022-11-14T23:43:22.544Z,99.90
2022-11-14T23:49:00.474Z,99.90
2022-11-14T23:51:49.100Z,99.90
2022-11-14T23:54:40.263Z,99.90
